Time,TemperatureF,DewpointF,PressureIn,WindDirection,WindDirectionDegrees,WindSpeedMPH,WindSpeedGustMPH,Humidity,HourlyPrecipIn,Conditions,Clouds,dailyrainin,SoftwareType,DateUTC
2013-07-22 00:00:00,72.6,56.0,29.85,ESE,117,2.0,3.0,56,0.00,,,0.00,Wunderground v.1.15,2013-07-22 06:00:00,
2013-07-22 00:10:00,72.4,56.8,29.85,East,89,2.0,2.0,58,0.00,,,0.00,Wunderground v.1.15,2013-07-22 06:10:00,
2013-07-22 00:15:00,72.3,56.7,29.85,ESE,121,2.0,2.0,58,0.00,,,0.00,Wunderground v.1.15,2013-07-22 06:15:00,
2013-07-22 00:20:00,72.2,56.6,29.85,SE,129,1.0,2.0,58,0.00,,,0.00,Wunderground v.1.15,2013-07-22 06:20:00,
2013-07-22 00:30:00,72.1,56.5,29.84,ESE,105,2.0,2.0,58,0.00,,,0.00,Wunderground v.1.15,2013-07-22 06:30:00,
2013-07-22 00:35:00,72.0,56.4,29.84,SE,134,1.0,2.0,58,0.00,,,0.00,Wunderground v.1.15,2013-07-22 06:35:00,
2013-07-22 00:40:00,72.0,56.4,29.85,ESE,120,1.0,1.0,58,0.00,,,0.00,Wunderground v.1.15,2013-07-22 06:40:00,
2013-07-22 00:45:00,71.9,56.3,29.84,SSE,157,1.0,1.0,58,0.00,,,0.00,Wunderground v.1.15,2013-07-22 06:45:00,
2013-07-22 00:55:00,71.7,56.1,29.84,SE,125,0.0,1.0,58,0.00,,,0.00,Wunderground v.1.15,2013-07-22 06:55:00,
2013-07-22 01:00:00,71.4,56.3,29.84,SE,125,0.0,0.0,59,0.00,,,0.00,Wunderground v.1.15,2013-07-22 07:00:00,
2013-07-22 01:10:00,70.8,56.2,29.84,SE,124,0.0,0.0,60,0.00,,,0.00,Wunderground v.1.15,2013-07-22 07:10:00,
2013-07-22 01:15:00,70.7,56.1,29.84,SSE,157,0.0,0.0,60,0.00,,,0.00,Wunderground v.1.15,2013-07-22 07:15:00,
2013-07-22 01:20:00,70.9,56.3,29.84,SE,139,1.0,1.0,60,0.00,,,0.00,Wunderground v.1.15,2013-07-22 07:20:00,
2013-07-22 01:30:00,70.9,55.9,29.84,SE,141,1.0,1.0,59,0.00,,,0.00,Wunderground v.1.15,2013-07-22 07:30:00,
2013-07-22 01:40:00,70.4,56.8,29.83,SE,141,0.0,0.0,62,0.00,,,0.00,Wunderground v.1.15,2013-07-22 07:40:00,
2013-07-22 01:50:00,69.4,55.8,29.83,SE,141,0.0,0.0,62,0.00,,,0.00,Wunderground v.1.15,2013-07-22 07:50:00,
2013-07-22 01:55:00,69.3,56.6,29.83,SE,136,0.0,0.0,64,0.00,,,0.00,Wunderground v.1.15,2013-07-22 07:55:00,
2013-07-22 02:00:00,69.1,56.4,29.83,SE,136,0.0,0.0,64,0.00,,,0.00,Wunderground v.1.15,2013-07-22 08:00:00,
2013-07-22 02:10:00,68.6,56.8,29.82,SE,131,0.0,1.0,66,0.00,,,0.00,Wunderground v.1.15,2013-07-22 08:10:00,
2013-07-22 02:15:00,68.6,56.4,29.81,NNE,16,0.0,1.0,65,0.00,,,0.00,Wunderground v.1.15,2013-07-22 08:15:00,
2013-07-22 02:25:00,69.4,55.4,29.81,NNE,26,1.0,1.0,61,0.00,,,0.00,Wunderground v.1.15,2013-07-22 08:25:00,
2013-07-22 02:30:00,69.5,54.5,29.81,NNE,20,1.0,1.0,59,0.00,,,0.00,Wunderground v.1.15,2013-07-22 08:30:00,
2013-07-22 02:40:00,69.2,54.3,29.81,ENE,60,0.0,0.0,59,0.00,,,0.00,Wunderground v.1.15,2013-07-22 08:40:00,
2013-07-22 02:45:00,68.8,53.9,29.81,ENE,59,0.0,0.0,59,0.00,,,0.00,Wunderground v.1.15,2013-07-22 08:45:00,
2013-07-22 02:55:00,67.9,54.8,29.81,ENE,59,0.0,0.0,63,0.00,,,0.00,Wunderground v.1.15,2013-07-22 08:55:00,
2013-07-22 03:00:00,67.4,54.4,29.81,ENE,60,0.0,0.0,63,0.00,,,0.00,Wunderground v.1.15,2013-07-22 09:00:00,
2013-07-22 03:10:00,66.8,54.2,29.81,ENE,61,0.0,0.0,64,0.00,,,0.00,Wunderground v.1.15,2013-07-22 09:10:00,
2013-07-22 03:15:00,66.2,54.5,29.81,ENE,60,0.0,0.0,66,0.00,,,0.00,Wunderground v.1.15,2013-07-22 09:15:00,
2013-07-22 03:20:00,66.1,55.2,29.81,ENE,61,0.0,0.0,68,0.00,,,0.00,Wunderground v.1.15,2013-07-22 09:20:00,
2013-07-22 03:30:00,66.3,55.0,29.81,ENE,60,0.0,0.0,67,0.00,,,0.00,Wunderground v.1.15,2013-07-22 09:30:00,
2013-07-22 03:35:00,66.4,54.7,29.81,ENE,61,0.0,0.0,66,0.00,,,0.00,Wunderground v.1.15,2013-07-22 09:35:00,
2013-07-22 03:45:00,66.1,54.4,29.81,ENE,61,0.0,0.0,66,0.00,,,0.00,Wunderground v.1.15,2013-07-22 09:45:00,
2013-07-22 03:55:00,65.6,54.8,29.81,ENE,59,0.0,0.0,68,0.00,,,0.00,Wunderground v.1.15,2013-07-22 09:55:00,
2013-07-22 04:00:00,65.4,54.6,29.82,ENE,60,0.0,0.0,68,0.00,,,0.00,Wunderground v.1.15,2013-07-22 10:00:00,
2013-07-22 04:10:00,65.2,54.4,29.81,ENE,59,0.0,0.0,68,0.00,,,0.00,Wunderground v.1.15,2013-07-22 10:10:00,
2013-07-22 04:20:00,65.4,54.6,29.81,ENE,61,0.0,0.0,68,0.00,,,0.00,Wunderground v.1.15,2013-07-22 10:20:00,
2013-07-22 04:30:00,65.4,54.2,29.81,ENE,61,0.0,0.0,67,0.00,,,0.00,Wunderground v.1.15,2013-07-22 10:30:00,
2013-07-22 04:40:00,64.7,54.3,29.81,ENE,61,0.0,0.0,69,0.00,,,0.00,Wunderground v.1.15,2013-07-22 10:40:00,
2013-07-22 04:50:00,64.6,54.2,29.81,ENE,60,0.0,0.0,69,0.00,,,0.00,Wunderground v.1.15,2013-07-22 10:50:00,
2013-07-22 04:55:00,64.4,54.8,29.82,ENE,60,0.0,0.0,71,0.00,,,0.00,Wunderground v.1.15,2013-07-22 10:55:00,
2013-07-22 05:05:00,64.2,54.6,29.82,ENE,60,0.0,0.0,71,0.00,,,0.00,Wunderground v.1.15,2013-07-22 11:05:00,
2013-07-22 05:10:00,64.1,54.9,29.82,ENE,59,0.0,0.0,72,0.00,,,0.00,Wunderground v.1.15,2013-07-22 11:10:00,
2013-07-22 05:20:00,64.7,55.5,29.82,ENE,60,0.0,0.0,72,0.00,,,0.00,Wunderground v.1.15,2013-07-22 11:20:00,
2013-07-22 05:30:00,65.7,55.6,29.82,ENE,60,0.0,0.0,70,0.00,,,0.00,Wunderground v.1.15,2013-07-22 11:30:00,
2013-07-22 05:40:00,66.6,56.1,29.82,ENE,60,0.0,0.0,69,0.00,,,0.00,Wunderground v.1.15,2013-07-22 11:40:00,
2013-07-22 05:50:00,67.0,56.1,29.82,NNW,344,0.0,1.0,68,0.00,,,0.00,Wunderground v.1.15,2013-07-22 11:50:00,
2013-07-22 05:55:00,67.3,56.4,29.83,NE,40,1.0,1.0,68,0.00,,,0.00,Wunderground v.1.15,2013-07-22 11:55:00,
2013-07-22 06:00:00,67.3,56.0,29.83,NNE,21,1.0,2.0,67,0.00,,,0.00,Wunderground v.1.15,2013-07-22 12:00:00,
2013-07-22 06:10:00,67.4,56.1,29.83,NNW,335,1.0,1.0,67,0.00,,,0.00,Wunderground v.1.15,2013-07-22 12:10:00,
2013-07-22 06:15:00,67.4,56.1,29.83,NNE,14,1.0,1.0,67,0.00,,,0.00,Wunderground v.1.15,2013-07-22 12:15:00,
2013-07-22 06:25:00,67.2,56.3,29.83,NW,322,0.0,1.0,68,0.00,,,0.00,Wunderground v.1.15,2013-07-22 12:25:00,
2013-07-22 06:30:00,67.1,56.2,29.83,NW,322,0.0,0.0,68,0.00,,,0.00,Wunderground v.1.15,2013-07-22 12:30:00,
2013-07-22 06:40:00,66.7,56.2,29.83,NW,322,0.0,0.0,69,0.00,,,0.00,Wunderground v.1.15,2013-07-22 12:40:00,
2013-07-22 06:50:00,66.7,56.6,29.83,NW,322,0.0,0.0,70,0.00,,,0.00,Wunderground v.1.15,2013-07-22 12:50:00,
2013-07-22 07:00:00,67.3,56.8,29.83,WNW,298,0.0,0.0,69,0.00,,,0.00,Wunderground v.1.15,2013-07-22 13:00:00,
2013-07-22 07:10:00,67.7,56.3,29.84,NNW,335,1.0,2.0,67,0.00,,,0.00,Wunderground v.1.15,2013-07-22 13:10:00,
2013-07-22 07:15:00,67.8,56.0,29.84,NW,324,2.0,2.0,66,0.00,,,0.00,Wunderground v.1.15,2013-07-22 13:15:00,
2013-07-22 07:20:00,67.9,56.5,29.84,West,259,1.0,1.0,67,0.00,,,0.00,Wunderground v.1.15,2013-07-22 13:20:00,
2013-07-22 07:30:00,68.3,56.5,29.84,SW,222,0.0,0.0,66,0.00,,,0.00,Wunderground v.1.15,2013-07-22 13:30:00,
2013-07-22 07:40:00,68.8,56.1,29.84,WSW,255,0.0,0.0,64,0.00,,,0.00,Wunderground v.1.15,2013-07-22 13:40:00,
2013-07-22 07:45:00,69.1,56.8,29.84,SW,232,0.0,0.0,65,0.00,,,0.00,Wunderground v.1.15,2013-07-22 13:45:00,
2013-07-22 07:50:00,69.4,56.3,29.84,SSE,157,1.0,1.0,63,0.00,,,0.00,Wunderground v.1.15,2013-07-22 13:50:00,
2013-07-22 08:00:00,69.9,56.3,29.85,South,171,1.0,1.0,62,0.00,,,0.00,Wunderground v.1.15,2013-07-22 14:00:00,
2013-07-22 08:10:00,70.1,56.5,29.85,SSW,198,0.0,0.0,62,0.00,,,0.00,Wunderground v.1.15,2013-07-22 14:10:00,
2013-07-22 08:15:00,70.4,56.8,29.85,SSE,159,0.0,0.0,62,0.00,,,0.00,Wunderground v.1.15,2013-07-22 14:15:00,
2013-07-22 08:25:00,71.0,56.4,29.85,SSW,200,1.0,1.0,60,0.00,,,0.00,Wunderground v.1.15,2013-07-22 14:25:00,
2013-07-22 08:35:00,71.4,55.9,29.86,West,259,2.0,2.0,58,0.00,,,0.00,Wunderground v.1.15,2013-07-22 14:35:00,
2013-07-22 08:40:00,71.5,56.4,29.86,SW,217,1.0,1.0,59,0.00,,,0.00,Wunderground v.1.15,2013-07-22 14:40:00,
2013-07-22 08:50:00,72.0,55.9,29.86,SW,215,1.0,1.0,57,0.00,,,0.00,Wunderground v.1.15,2013-07-22 14:50:00,
2013-07-22 09:00:00,72.3,55.2,29.86,NNW,340,1.0,2.0,55,0.00,,,0.00,Wunderground v.1.15,2013-07-22 15:00:00,
2013-07-22 09:10:00,72.8,55.2,29.86,NW,304,0.0,0.0,54,0.00,,,0.00,Wunderground v.1.15,2013-07-22 15:10:00,
2013-07-22 09:20:00,72.9,55.8,29.86,SSW,197,0.0,0.0,55,0.00,,,0.00,Wunderground v.1.15,2013-07-22 15:20:00,
2013-07-22 09:25:00,72.9,55.8,29.85,SE,139,0.0,0.0,55,0.00,,,0.00,Wunderground v.1.15,2013-07-22 15:25:00,
2013-07-22 09:35:00,74.0,55.8,29.85,SE,146,1.0,1.0,53,0.00,,,0.00,Wunderground v.1.15,2013-07-22 15:35:00,
2013-07-22 09:45:00,75.1,56.3,29.85,WSW,239,0.0,1.0,52,0.00,,,0.00,Wunderground v.1.15,2013-07-22 15:45:00,
2013-07-22 09:55:00,76.1,55.5,29.85,WSW,242,1.0,2.0,49,0.00,,,0.00,Wunderground v.1.15,2013-07-22 15:55:00,
2013-07-22 10:00:00,76.6,56.0,29.85,SE,127,2.0,3.0,49,0.00,,,0.00,Wunderground v.1.15,2013-07-22 16:00:00,
2013-07-22 10:10:00,77.0,56.4,29.85,WSW,239,2.0,2.0,49,0.00,,,0.00,Wunderground v.1.15,2013-07-22 16:10:00,
2013-07-22 10:20:00,77.8,56.0,29.85,West,276,1.0,1.0,47,0.00,,,0.00,Wunderground v.1.15,2013-07-22 16:20:00,
2013-07-22 10:30:00,77.5,55.7,29.85,WSW,245,1.0,1.0,47,0.00,,,0.00,Wunderground v.1.15,2013-07-22 16:30:00,
2013-07-22 10:35:00,78.0,55.5,29.85,West,278,1.0,2.0,46,0.00,,,0.00,Wunderground v.1.15,2013-07-22 16:35:00,
2013-07-22 10:45:00,78.5,56.0,29.85,South,191,1.0,3.0,46,0.00,,,0.00,Wunderground v.1.15,2013-07-22 16:45:00,
2013-07-22 10:55:00,79.3,54.2,29.85,SW,225,1.0,2.0,42,0.00,,,0.00,Wunderground v.1.15,2013-07-22 16:55:00,
2013-07-22 11:00:00,80.1,55.6,29.85,SSE,159,1.0,3.0,43,0.00,,,0.00,Wunderground v.1.15,2013-07-22 17:00:00,
2013-07-22 11:10:00,80.9,53.6,29.85,West,261,2.0,2.0,39,0.00,,,0.00,Wunderground v.1.15,2013-07-22 17:10:00,
2013-07-22 11:15:00,81.6,53.5,29.84,NW,307,1.0,2.0,38,0.00,,,0.00,Wunderground v.1.15,2013-07-22 17:15:00,
2013-07-22 11:20:00,82.5,55.0,29.84,SSW,205,0.0,1.0,39,0.00,,,0.00,Wunderground v.1.15,2013-07-22 17:20:00,
2013-07-22 11:30:00,82.8,53.1,29.84,SSW,203,1.0,2.0,36,0.00,,,0.00,Wunderground v.1.15,2013-07-22 17:30:00,
2013-07-22 11:35:00,83.6,53.8,29.84,SSW,198,1.0,2.0,36,0.00,,,0.00,Wunderground v.1.15,2013-07-22 17:35:00,
2013-07-22 11:40:00,83.9,52.5,29.84,SSE,165,1.0,3.0,34,0.00,,,0.00,Wunderground v.1.15,2013-07-22 17:40:00,
2013-07-22 11:45:00,83.7,52.3,29.83,West,259,2.0,3.0,34,0.00,,,0.00,Wunderground v.1.15,2013-07-22 17:45:00,
2013-07-22 11:55:00,82.9,53.2,29.83,NNW,339,2.0,4.0,36,0.00,,,0.00,Wunderground v.1.15,2013-07-22 17:55:00,
2013-07-22 12:00:00,84.1,53.5,29.83,NNW,330,1.0,1.0,35,0.00,,,0.00,Wunderground v.1.15,2013-07-22 18:00:00,
2013-07-22 12:10:00,83.8,53.2,29.83,SE,143,2.0,5.0,35,0.00,,,0.00,Wunderground v.1.15,2013-07-22 18:10:00,
2013-07-22 12:16:00,83.2,52.7,29.83,SSE,148,3.0,5.0,35,0.00,,,0.00,Wunderground v.1.15,2013-07-22 18:16:00,
2013-07-22 12:30:00,84.0,52.6,29.82,SSE,149,3.0,3.0,34,0.00,,,0.00,Wunderground v.1.15,2013-07-22 18:30:00,
2013-07-22 12:35:00,84.3,53.7,29.82,SSE,149,3.0,3.0,35,0.00,,,0.00,Wunderground v.1.15,2013-07-22 18:35:00,
2013-07-22 12:40:00,84.1,52.7,29.82,South,184,3.0,4.0,34,0.00,,,0.00,Wunderground v.1.15,2013-07-22 18:40:00,
2013-07-22 12:50:00,84.6,53.1,29.82,SSE,159,2.0,2.0,34,0.00,,,0.00,Wunderground v.1.15,2013-07-22 18:50:00,
2013-07-22 12:55:00,84.7,52.4,29.82,SW,217,2.0,2.0,33,0.00,,,0.00,Wunderground v.1.15,2013-07-22 18:55:00,
2013-07-22 13:00:00,85.5,52.3,29.82,SE,134,2.0,2.0,32,0.00,,,0.00,Wunderground v.1.15,2013-07-22 19:00:00,
2013-07-22 13:10:00,85.8,53.4,29.81,SW,217,2.0,2.0,33,0.00,,,0.00,Wunderground v.1.15,2013-07-22 19:10:00,
2013-07-22 13:15:00,86.6,53.2,29.81,SSW,211,2.0,2.0,32,0.00,,,0.00,Wunderground v.1.15,2013-07-22 19:15:00,
2013-07-22 13:20:00,87.6,52.3,29.81,SW,235,2.0,2.0,30,0.00,,,0.00,Wunderground v.1.15,2013-07-22 19:20:00,
2013-07-22 13:25:00,88.3,53.8,29.80,West,269,1.0,7.0,31,0.00,,,0.00,Wunderground v.1.15,2013-07-22 19:25:00,
2013-07-22 13:30:00,88.3,53.8,29.80,WNW,288,2.0,5.0,31,0.00,,,0.00,Wunderground v.1.15,2013-07-22 19:30:00,
2013-07-22 13:40:00,88.1,52.8,29.79,SSE,165,3.0,3.0,30,0.00,,,0.00,Wunderground v.1.15,2013-07-22 19:40:00,
2013-07-22 13:45:00,88.0,51.8,29.79,NW,308,3.0,3.0,29,0.00,,,0.00,Wunderground v.1.15,2013-07-22 19:45:00,
2013-07-22 13:55:00,87.0,51.8,29.79,West,270,2.0,3.0,30,0.00,,,0.00,Wunderground v.1.15,2013-07-22 19:55:00,
2013-07-22 14:00:00,87.1,51.9,29.79,WSW,250,2.0,2.0,30,0.00,,,0.00,Wunderground v.1.15,2013-07-22 20:00:00,
2013-07-22 14:10:00,87.9,51.7,29.78,SSE,163,2.0,2.0,29,0.00,,,0.00,Wunderground v.1.15,2013-07-22 20:10:00,
2013-07-22 14:20:00,89.0,49.7,29.78,WSW,256,1.0,1.0,26,0.00,,,0.00,Wunderground v.1.15,2013-07-22 20:20:00,
2013-07-22 14:25:00,89.7,50.3,29.77,SSW,204,1.0,1.0,26,0.00,,,0.00,Wunderground v.1.15,2013-07-22 20:25:00,
2013-07-22 14:30:00,90.7,51.1,29.77,SSW,209,1.0,1.0,26,0.00,,,0.00,Wunderground v.1.15,2013-07-22 20:30:00,
2013-07-22 14:40:00,91.3,50.5,29.76,NW,325,2.0,2.0,25,0.00,,,0.00,Wunderground v.1.15,2013-07-22 20:40:00,
2013-07-22 14:45:00,91.4,48.4,29.76,NW,326,2.0,2.0,23,0.00,,,0.00,Wunderground v.1.15,2013-07-22 20:45:00,
2013-07-22 14:50:00,91.6,50.8,29.76,WSW,256,1.0,3.0,25,0.00,,,0.00,Wunderground v.1.15,2013-07-22 20:50:00,
2013-07-22 14:55:00,91.5,48.5,29.75,SE,141,2.0,3.0,23,0.00,,,0.00,Wunderground v.1.15,2013-07-22 20:55:00,
2013-07-22 15:00:00,91.3,48.3,29.75,SE,125,3.0,5.0,23,0.00,,,0.00,Wunderground v.1.15,2013-07-22 21:00:00,
2013-07-22 15:10:00,90.5,48.8,29.74,SE,144,4.0,4.0,24,0.00,,,0.00,Wunderground v.1.15,2013-07-22 21:10:00,
2013-07-22 15:20:00,91.6,50.8,29.74,SSW,210,3.0,3.0,25,0.00,,,0.00,Wunderground v.1.15,2013-07-22 21:20:00,
2013-07-22 15:25:00,91.6,48.6,29.74,SSE,148,3.0,3.0,23,0.00,,,0.00,Wunderground v.1.15,2013-07-22 21:25:00,
2013-07-22 15:30:00,91.3,48.3,29.74,NW,317,2.0,2.0,23,0.00,,,0.00,Wunderground v.1.15,2013-07-22 21:30:00,
2013-07-22 15:35:00,92.1,49.0,29.74,West,278,2.0,5.0,23,0.00,,,0.00,Wunderground v.1.15,2013-07-22 21:35:00,
2013-07-22 15:45:00,91.3,48.3,29.74,SW,217,2.0,3.0,23,0.00,,,0.00,Wunderground v.1.15,2013-07-22 21:45:00,
2013-07-22 15:55:00,91.0,48.1,29.74,North,355,2.0,5.0,23,0.00,,,0.00,Wunderground v.1.15,2013-07-22 21:55:00,
2013-07-22 16:00:00,91.3,48.3,29.73,NNW,330,1.0,1.0,23,0.00,,,0.00,Wunderground v.1.15,2013-07-22 22:00:00,
2013-07-22 16:10:00,91.6,48.6,29.73,NNW,333,0.0,2.0,23,0.00,,,0.00,Wunderground v.1.15,2013-07-22 22:10:00,
2013-07-22 16:20:00,91.2,48.2,29.73,West,281,1.0,3.0,23,0.00,,,0.00,Wunderground v.1.15,2013-07-22 22:20:00,
2013-07-22 16:25:00,90.7,46.6,29.73,West,271,1.0,3.0,22,0.00,,,0.00,Wunderground v.1.15,2013-07-22 22:25:00,
2013-07-22 16:35:00,90.8,46.7,29.73,NW,314,1.0,1.0,22,0.00,,,0.00,Wunderground v.1.15,2013-07-22 22:35:00,
2013-07-22 16:45:00,92.7,47.0,29.73,West,264,2.0,4.0,21,0.00,,,0.00,Wunderground v.1.15,2013-07-22 22:45:00,
2013-07-22 16:50:00,92.9,47.2,29.72,NW,321,2.0,3.0,21,0.00,,,0.00,Wunderground v.1.15,2013-07-22 22:50:00,
2013-07-22 17:00:00,92.7,47.0,29.72,SSW,203,2.0,2.0,21,0.00,,,0.00,Wunderground v.1.15,2013-07-22 23:00:00,
2013-07-22 17:10:00,92.9,44.6,29.72,East,85,1.0,1.0,19,0.00,,,0.00,Wunderground v.1.15,2013-07-22 23:10:00,
2013-07-22 17:20:00,92.8,43.1,29.72,ESE,122,1.0,2.0,18,0.00,,,0.00,Wunderground v.1.15,2013-07-22 23:20:00,
2013-07-22 17:25:00,92.5,44.2,29.71,ESE,110,1.0,2.0,19,0.00,,,0.00,Wunderground v.1.15,2013-07-22 23:25:00,
2013-07-22 17:35:00,94.5,45.9,29.71,NW,323,0.0,2.0,19,0.00,,,0.00,Wunderground v.1.15,2013-07-22 23:35:00,
2013-07-22 17:45:00,93.4,45.0,29.71,West,276,2.0,3.0,19,0.00,,,0.00,Wunderground v.1.15,2013-07-22 23:45:00,
2013-07-22 17:55:00,92.8,44.5,29.71,SSE,165,1.0,2.0,19,0.00,,,0.00,Wunderground v.1.15,2013-07-22 23:55:00,
2013-07-22 18:00:00,92.7,45.8,29.71,SE,142,2.0,3.0,20,0.00,,,0.00,Wunderground v.1.15,2013-07-23 00:00:00,
2013-07-22 18:10:00,92.1,43.9,29.71,South,191,2.0,2.0,19,0.00,,,0.00,Wunderground v.1.15,2013-07-23 00:10:00,
2013-07-22 18:20:00,91.4,44.7,29.71,South,178,2.0,3.0,20,0.00,,,0.00,Wunderground v.1.15,2013-07-23 00:20:00,
2013-07-22 18:30:00,90.9,44.3,29.71,SSW,194,2.0,2.0,20,0.00,,,0.00,Wunderground v.1.15,2013-07-23 00:30:00,
2013-07-22 18:40:00,90.3,45.1,29.70,SSE,159,3.0,3.0,21,0.00,,,0.00,Wunderground v.1.15,2013-07-23 00:40:00,
2013-07-22 18:45:00,90.0,44.8,29.70,SSE,163,2.0,3.0,21,0.00,,,0.00,Wunderground v.1.15,2013-07-23 00:45:00,
2013-07-22 18:55:00,89.5,45.6,29.70,SSW,205,1.0,2.0,22,0.00,,,0.00,Wunderground v.1.15,2013-07-23 00:55:00,
2013-07-22 19:00:00,89.3,45.5,29.70,SSW,193,0.0,0.0,22,0.00,,,0.00,Wunderground v.1.15,2013-07-23 01:00:00,
2013-07-22 19:10:00,90.0,44.8,29.70,SSW,200,0.0,0.0,21,0.00,,,0.00,Wunderground v.1.15,2013-07-23 01:10:00,
2013-07-22 19:15:00,90.9,44.3,29.70,South,178,0.0,1.0,20,0.00,,,0.00,Wunderground v.1.15,2013-07-23 01:15:00,
2013-07-22 19:25:00,91.3,44.6,29.70,SSW,192,0.0,1.0,20,0.00,,,0.00,Wunderground v.1.15,2013-07-23 01:25:00,
2013-07-22 19:35:00,90.1,44.9,29.70,SE,135,1.0,1.0,21,0.00,,,0.00,Wunderground v.1.15,2013-07-23 01:35:00,
2013-07-22 19:40:00,89.6,45.7,29.70,SSE,155,1.0,1.0,22,0.00,,,0.00,Wunderground v.1.15,2013-07-23 01:40:00,
2013-07-22 19:45:00,89.3,44.2,29.70,SE,130,1.0,1.0,21,0.00,,,0.00,Wunderground v.1.15,2013-07-23 01:45:00,
2013-07-22 19:55:00,88.8,45.0,29.71,SE,144,2.0,2.0,22,0.00,,,0.00,Wunderground v.1.15,2013-07-23 01:55:00,
2013-07-22 20:00:00,88.7,45.0,29.71,SSE,162,3.0,4.0,22,0.00,,,0.00,Wunderground v.1.15,2013-07-23 02:00:00,
2013-07-22 20:10:00,88.4,45.9,29.71,SSE,155,3.0,3.0,23,0.00,,,0.00,Wunderground v.1.15,2013-07-23 02:10:00,
2013-07-22 20:20:00,88.0,48.8,29.71,SSE,155,5.0,5.0,26,0.00,,,0.00,Wunderground v.1.15,2013-07-23 02:20:00,
2013-07-22 20:25:00,87.7,48.6,29.72,SE,145,5.0,5.0,26,0.00,,,0.00,Wunderground v.1.15,2013-07-23 02:25:00,
2013-07-22 20:30:00,87.6,49.5,29.72,SSE,155,5.0,5.0,27,0.00,,,0.00,Wunderground v.1.15,2013-07-23 02:30:00,
2013-07-22 20:40:00,86.4,48.5,29.73,East,100,5.0,7.0,27,0.00,,,0.00,Wunderground v.1.15,2013-07-23 02:40:00,
2013-07-22 20:45:00,86.0,48.1,29.73,ESE,122,5.0,7.0,27,0.00,,,0.00,Wunderground v.1.15,2013-07-23 02:45:00,
2013-07-22 20:55:00,85.2,48.4,29.74,East,85,9.0,9.0,28,0.00,,,0.00,Wunderground v.1.15,2013-07-23 02:55:00,
2013-07-22 21:00:00,84.8,48.1,29.74,East,97,10.0,10.0,28,0.00,,,0.00,Wunderground v.1.15,2013-07-23 03:00:00,
2013-07-22 21:10:00,84.4,46.8,29.75,SE,125,9.0,11.0,27,0.00,,,0.00,Wunderground v.1.15,2013-07-23 03:10:00,
2013-07-22 21:15:00,84.4,46.8,29.75,ESE,105,9.0,11.0,27,0.00,,,0.00,Wunderground v.1.15,2013-07-23 03:15:00,
2013-07-22 21:25:00,84.6,46.9,29.75,SSE,148,5.0,6.0,27,0.00,,,0.00,Wunderground v.1.15,2013-07-23 03:25:00,
2013-07-22 21:30:00,84.9,46.2,29.75,SE,125,6.0,6.0,26,0.00,,,0.00,Wunderground v.1.15,2013-07-23 03:30:00,
2013-07-22 21:40:00,85.1,47.4,29.75,SSE,159,3.0,3.0,27,0.00,,,0.00,Wunderground v.1.15,2013-07-23 03:40:00,
2013-07-22 21:45:00,84.9,47.2,29.75,SSW,194,2.0,3.0,27,0.00,,,0.00,Wunderground v.1.15,2013-07-23 03:45:00,
2013-07-22 21:50:00,84.3,48.6,29.75,WSW,253,0.0,1.0,29,0.00,,,0.00,Wunderground v.1.15,2013-07-23 03:50:00,
2013-07-22 22:00:00,83.9,47.3,29.75,WNW,298,1.0,1.0,28,0.00,,,0.00,Wunderground v.1.15,2013-07-23 04:00:00,
2013-07-22 22:05:00,84.0,49.2,29.75,West,269,0.0,1.0,30,0.00,,,0.00,Wunderground v.1.15,2013-07-23 04:05:00,
2013-07-22 22:10:00,83.6,48.9,29.75,SSW,196,0.0,0.0,30,0.00,,,0.00,Wunderground v.1.15,2013-07-23 04:10:00,
2013-07-22 22:20:00,83.1,48.5,29.76,ESE,110,0.0,0.0,30,0.00,,,0.00,Wunderground v.1.15,2013-07-23 04:20:00,
2013-07-22 22:25:00,83.2,47.6,29.77,East,90,0.0,0.0,29,0.00,,,0.00,Wunderground v.1.15,2013-07-23 04:25:00,
2013-07-22 22:30:00,83.2,48.5,29.77,NE,37,0.0,0.0,30,0.00,,,0.00,Wunderground v.1.15,2013-07-23 04:30:00,
2013-07-22 22:40:00,82.9,48.3,29.78,SE,124,0.0,0.0,30,0.00,,,0.00,Wunderground v.1.15,2013-07-23 04:40:00,
2013-07-22 22:50:00,83.0,49.2,29.78,SE,131,3.0,5.0,31,0.00,,,0.00,Wunderground v.1.15,2013-07-23 04:50:00,
2013-07-22 23:00:00,82.4,50.4,29.78,SE,139,4.0,4.0,33,0.00,,,0.00,Wunderground v.1.15,2013-07-23 05:00:00,
2013-07-22 23:05:00,82.1,50.9,29.77,SE,145,3.0,4.0,34,0.00,,,0.00,Wunderground v.1.15,2013-07-23 05:05:00,
2013-07-22 23:10:00,81.7,50.6,29.78,SSE,162,2.0,2.0,34,0.00,,,0.00,Wunderground v.1.15,2013-07-23 05:10:00,
2013-07-22 23:15:00,81.4,51.1,29.78,South,183,3.0,3.0,35,0.00,,,0.00,Wunderground v.1.15,2013-07-23 05:15:00,
2013-07-22 23:25:00,81.1,50.9,29.78,SE,141,3.0,3.0,35,0.00,,,0.00,Wunderground v.1.15,2013-07-23 05:25:00,
2013-07-22 23:30:00,80.9,51.4,29.78,SSE,150,2.0,2.0,36,0.00,,,0.00,Wunderground v.1.15,2013-07-23 05:30:00,
2013-07-22 23:40:00,80.7,51.3,29.77,SE,137,1.0,1.0,36,0.00,,,0.00,Wunderground v.1.15,2013-07-23 05:40:00,
2013-07-22 23:50:00,80.6,51.2,29.78,SSE,152,2.0,2.0,36,0.00,,,0.00,Wunderground v.1.15,2013-07-23 05:50:00,
2013-07-22 23:55:00,80.5,51.1,29.78,ESE,119,2.0,2.0,36,0.00,,,0.00,Wunderground v.1.15,2013-07-23 05:55:00,